UAAT weather

Ak Bashat Airport
Ak Bashat village, Chuy Region, Kyrgyzstan

Public forecast

Using degrees Celsius for public forecast. Weather courtesy of forecast.io.

Closest aviation weather report (METAR) to Ak Bashat Airport

Closest report is Manas International Airport, 39.8 nm (73.7 km) ENE. Retrieved 2020/01/27 11:30 UTC (20 minutes ago):

UCFM 271130Z 23006MPS 9999 FEW050CB M01/M05 Q1019 R26/0///95 NOSIG

Closest aviation forecast (TAF) to Ak Bashat Airport

Closest forecast is Manas International Airport, 39.8 nm (73.7 km) ENE. Retrieved 2020/01/27 06:00 UTC (6 hours ago):

TAF UCFM 270451Z 2706/2806 30003G08MPS 4000 BR FU SCT010 BKN050 TEMPO 2706/2712 24003G08MPS 1500 BR SCT005 FM271200 27003G08MPS 1500 BR BKN005 OVC030CB TEMPO 2712/2718 0500 SHSN FZFG BKN003 OVC020CB TEMPO 2718/2806 0300 SHSN FZFG BKN002 OVC015CB